createdAt,value
2022-12-23T00:00:46.483Z,22.17
2022-12-23T00:03:14.365Z,22.88
2022-12-23T00:05:43.511Z,24.40
2022-12-23T00:08:11.184Z,26.10
2022-12-23T00:10:39.942Z,21.60
2022-12-23T00:13:26.056Z,22.60
2022-12-23T00:16:02.473Z,25.10
2022-12-23T00:18:30.235Z,25.98
2022-12-23T00:21:08.575Z,26.77
2022-12-23T00:23:38.934Z,23.02
2022-12-23T00:26:07.151Z,27.90
2022-12-23T00:28:34.958Z,24.95
2022-12-23T00:31:04.486Z,24.35
2022-12-23T00:33:34.514Z,20.10
2022-12-23T00:36:04.126Z,22.33
2022-12-23T00:38:49.331Z,18.98
2022-12-23T00:41:36.685Z,20.65
2022-12-23T00:44:05.738Z,21.63
2022-12-23T00:46:33.843Z,19.90
2022-12-23T00:51:47.630Z,22.50
2022-12-23T00:54:15.508Z,20.50
2022-12-23T00:56:43.194Z,20.00
2022-12-23T00:59:10.855Z,19.17
2022-12-23T01:01:56.447Z,17.17
2022-12-23T01:04:41.950Z,15.02
2022-12-23T01:07:11.484Z,19.13
2022-12-23T01:09:39.181Z,24.70
2022-12-23T01:12:07.088Z,14.02
2022-12-23T01:14:35.199Z,17.02
2022-12-23T01:19:30.770Z,16.65
2022-12-23T01:21:58.528Z,14.60
2022-12-23T01:24:30.626Z,17.27
2022-12-23T01:26:58.397Z,15.57
2022-12-23T01:29:26.501Z,15.80
2022-12-23T01:34:21.833Z,17.27
2022-12-23T01:36:49.570Z,15.07
2022-12-23T01:39:17.304Z,18.75
2022-12-23T01:42:03.668Z,18.58
2022-12-23T01:45:06.202Z,23.55
2022-12-23T01:47:40.024Z,22.23
2022-12-23T01:50:12.602Z,16.92
2022-12-23T01:52:45.736Z,19.15
2022-12-23T01:55:18.527Z,14.43
2022-12-23T01:57:48.444Z,17.52
2022-12-23T02:00:34.272Z,15.43
2022-12-23T02:03:19.621Z,17.13
2022-12-23T02:05:47.980Z,21.13
2022-12-23T02:08:34.604Z,17.88
2022-12-23T02:11:22.582Z,18.23
2022-12-23T02:14:14.059Z,17.77
2022-12-23T02:16:51.525Z,14.77
2022-12-23T02:19:31.878Z,15.45
2022-12-23T02:22:17.376Z,17.02
2022-12-23T02:25:18.274Z,17.63
2022-12-23T02:28:00.120Z,15.48
2022-12-23T02:30:40.347Z,20.90
2022-12-23T02:33:31.903Z,22.50
2022-12-23T02:36:14.841Z,20.23
2022-12-23T02:38:49.228Z,18.17
2022-12-23T02:41:22.366Z,17.70
2022-12-23T02:43:54.003Z,14.88
2022-12-23T02:46:31.673Z,14.20
2022-12-23T02:49:05.934Z,21.25
2022-12-23T02:51:37.574Z,15.40
2022-12-23T02:54:10.129Z,15.82
2022-12-23T02:56:43.326Z,13.40
2022-12-23T02:59:14.959Z,17.92
2022-12-23T03:01:45.950Z,17.80
2022-12-23T03:04:13.739Z,17.95
2022-12-23T03:06:43.363Z,16.90
2022-12-23T03:09:18.787Z,15.57
2022-12-23T03:11:55.114Z,15.35
2022-12-23T03:14:41.529Z,16.80
2022-12-23T03:17:22.286Z,14.65
2022-12-23T03:19:55.301Z,15.70
2022-12-23T03:22:27.256Z,15.85
2022-12-23T03:25:02.690Z,11.73
2022-12-23T03:27:35.751Z,14.50
2022-12-23T03:30:07.141Z,15.02
2022-12-23T03:32:40.730Z,15.63
2022-12-23T03:35:11.260Z,15.95
2022-12-23T03:37:44.916Z,16.88
2022-12-23T03:40:19.462Z,14.85
2022-12-23T03:42:51.161Z,15.40
2022-12-23T03:45:41.619Z,16.17
2022-12-23T03:48:19.073Z,16.45
2022-12-23T03:50:49.672Z,14.63
2022-12-23T03:53:22.521Z,19.98
2022-12-23T03:55:55.302Z,13.45
2022-12-23T03:58:34.331Z,14.40
2022-12-23T04:01:09.025Z,16.08
2022-12-23T04:03:43.068Z,13.35
2022-12-23T04:06:15.473Z,14.63
2022-12-23T04:08:44.974Z,13.98
2022-12-23T04:11:12.987Z,16.25
2022-12-23T04:13:40.896Z,13.85
2022-12-23T04:16:09.141Z,13.05
2022-12-23T04:18:38.245Z,14.50
2022-12-23T04:21:06.639Z,15.00
2022-12-23T04:23:34.385Z,10.73
2022-12-23T04:26:02.009Z,14.23
2022-12-23T04:28:29.735Z,11.13
2022-12-23T04:30:57.411Z,13.15
2022-12-23T04:33:25.111Z,12.30
2022-12-23T04:35:54.104Z,13.65
2022-12-23T04:38:21.782Z,11.57
2022-12-23T04:40:49.418Z,8.70
2022-12-23T04:43:17.101Z,15.15
2022-12-23T04:45:44.746Z,11.32
2022-12-23T04:48:12.468Z,12.65
2022-12-23T04:50:40.728Z,10.63
2022-12-23T04:53:09.784Z,14.00
2022-12-23T04:55:37.479Z,12.18
2022-12-23T04:58:05.174Z,12.30
2022-12-23T05:00:39.132Z,11.60
2022-12-23T05:03:07.825Z,12.02
2022-12-23T05:05:35.758Z,12.90
2022-12-23T05:08:05.160Z,11.43
2022-12-23T05:10:34.251Z,14.68
2022-12-23T05:13:01.942Z,11.30
2022-12-23T05:15:29.619Z,13.55
2022-12-23T05:17:57.301Z,13.32
2022-12-23T05:20:24.970Z,12.35
2022-12-23T05:22:52.624Z,13.85
2022-12-23T05:25:20.367Z,11.75
2022-12-23T05:27:49.413Z,13.25
2022-12-23T05:30:17.226Z,12.27
2022-12-23T05:32:44.943Z,14.48
2022-12-23T05:35:12.659Z,13.25
2022-12-23T05:37:40.346Z,15.50
2022-12-23T05:40:09.366Z,11.75
2022-12-23T05:42:37.203Z,15.18
2022-12-23T05:45:07.386Z,15.10
2022-12-23T05:47:35.105Z,13.30
2022-12-23T05:50:03.077Z,14.60
2022-12-23T05:52:30.746Z,11.75
2022-12-23T05:54:58.466Z,10.60
2022-12-23T05:57:26.166Z,12.40
2022-12-23T05:59:53.823Z,14.23
2022-12-23T06:02:23.019Z,10.82
2022-12-23T06:04:50.840Z,11.32
2022-12-23T06:07:18.479Z,9.77
2022-12-23T06:09:46.161Z,11.68
2022-12-23T06:12:13.825Z,11.32
2022-12-23T06:14:41.474Z,11.85
2022-12-23T06:17:09.159Z,18.42
2022-12-23T06:19:38.233Z,11.05
2022-12-23T06:22:05.875Z,12.23
2022-12-23T06:24:33.510Z,13.73
2022-12-23T06:27:01.181Z,12.27
2022-12-23T06:29:29.317Z,10.52
2022-12-23T06:34:24.841Z,10.85
2022-12-23T06:36:54.238Z,10.95
2022-12-23T06:39:22.100Z,10.88
2022-12-23T06:41:49.991Z,10.30
2022-12-23T06:44:18.327Z,13.93
2022-12-23T06:46:46.142Z,13.35
2022-12-23T06:49:14.182Z,13.23
2022-12-23T06:54:12.886Z,13.40
2022-12-23T06:56:40.868Z,12.55
2022-12-23T06:59:08.743Z,12.50
2022-12-23T07:01:36.489Z,9.07
2022-12-23T07:04:04.517Z,13.73
2022-12-23T07:06:32.199Z,14.50
2022-12-23T07:08:59.872Z,11.90
2022-12-23T07:11:28.919Z,15.43
2022-12-23T07:13:56.765Z,12.68
2022-12-23T07:16:24.506Z,10.73
2022-12-23T07:18:52.336Z,12.18
2022-12-23T07:21:26.740Z,14.48
2022-12-23T07:23:56.465Z,14.48
2022-12-23T07:26:24.133Z,14.02
2022-12-23T07:28:53.179Z,12.93
2022-12-23T07:31:20.952Z,11.40
2022-12-23T07:33:48.831Z,12.52
2022-12-23T07:36:17.533Z,12.55
2022-12-23T07:38:45.204Z,14.70
2022-12-23T07:41:12.891Z,11.73
2022-12-23T07:43:40.511Z,10.52
2022-12-23T07:46:10.451Z,10.65
2022-12-23T07:48:38.361Z,11.02
2022-12-23T07:51:06.540Z,9.60
2022-12-23T07:56:01.756Z,8.27
2022-12-23T07:58:29.506Z,18.38
2022-12-23T08:01:02.258Z,10.90
2022-12-23T08:03:31.495Z,7.53
2022-12-23T08:06:03.775Z,16.70
2022-12-23T08:08:31.810Z,12.38
2022-12-23T08:11:01.211Z,14.85
2022-12-23T08:13:29.389Z,14.57
2022-12-23T08:15:58.223Z,16.20
2022-12-23T08:18:27.018Z,19.92
2022-12-23T08:20:57.242Z,17.83
2022-12-23T08:23:25.898Z,19.42
2022-12-23T08:26:01.485Z,21.90
2022-12-23T08:28:29.847Z,21.67
2022-12-23T08:31:05.054Z,15.48
2022-12-23T08:33:32.835Z,16.58
2022-12-23T08:36:02.058Z,17.30
2022-12-23T08:38:29.820Z,16.75
2022-12-23T08:40:57.623Z,19.00
2022-12-23T08:43:30.248Z,19.98
2022-12-23T08:46:01.444Z,24.38
2022-12-23T08:48:29.145Z,21.02
2022-12-23T08:50:56.929Z,22.83
2022-12-23T08:53:26.011Z,15.23
2022-12-23T08:55:53.749Z,19.55
2022-12-23T08:58:21.419Z,24.10
2022-12-23T09:00:49.148Z,16.92
2022-12-23T09:03:16.929Z,22.83
2022-12-23T09:05:44.667Z,24.27
2022-12-23T09:08:12.317Z,27.25
2022-12-23T09:10:43.628Z,24.95
2022-12-23T09:13:16.234Z,26.77
2022-12-23T09:15:47.710Z,25.60
2022-12-23T09:18:15.491Z,26.05
2022-12-23T09:20:43.186Z,25.60
2022-12-23T09:23:10.892Z,28.38
2022-12-23T09:25:38.551Z,27.90
2022-12-23T09:28:08.068Z,24.98
2022-12-23T09:30:35.698Z,28.52
2022-12-23T09:33:03.396Z,35.22
2022-12-23T09:35:31.032Z,25.98
2022-12-23T09:37:58.712Z,34.30
2022-12-23T09:40:30.119Z,21.85
2022-12-23T09:43:10.194Z,28.52
2022-12-23T09:45:55.828Z,24.52
2022-12-23T09:48:27.007Z,32.00
2022-12-23T09:50:54.968Z,34.72
2022-12-23T09:53:27.220Z,29.00
2022-12-23T09:55:58.633Z,24.05
2022-12-23T09:58:31.001Z,33.55
2022-12-23T10:01:11.835Z,41.28
2022-12-23T10:04:11.672Z,34.92
2022-12-23T10:06:41.039Z,26.92
2022-12-23T10:09:11.101Z,26.85
2022-12-23T10:11:42.353Z,29.05
2022-12-23T10:14:18.221Z,21.88
2022-12-23T10:16:52.046Z,25.65
2022-12-23T10:19:23.896Z,25.42
2022-12-23T10:21:55.452Z,22.85
2022-12-23T10:24:25.695Z,26.00
2022-12-23T10:26:55.094Z,24.92
2022-12-23T10:29:24.065Z,30.35
2022-12-23T10:32:06.577Z,23.77
2022-12-23T10:34:46.126Z,31.00
2022-12-23T10:37:21.040Z,30.88
2022-12-23T10:42:29.287Z,21.45
2022-12-23T10:45:24.408Z,27.38
2022-12-23T10:50:45.932Z,20.52
2022-12-23T10:53:17.700Z,17.23
2022-12-23T10:55:46.147Z,25.10
2022-12-23T10:58:18.213Z,18.52
2022-12-23T11:00:50.317Z,20.45
2022-12-23T11:03:23.281Z,21.00
2022-12-23T11:05:53.583Z,21.35
2022-12-23T11:08:23.447Z,31.42
2022-12-23T11:10:51.361Z,30.40
2022-12-23T11:13:26.359Z,23.25
2022-12-23T11:15:54.135Z,28.50
2022-12-23T11:18:23.186Z,33.15
2022-12-23T11:21:04.111Z,20.10
2022-12-23T11:23:33.599Z,20.88
2022-12-23T11:26:04.534Z,26.33
2022-12-23T11:28:33.860Z,25.90
2022-12-23T11:31:08.139Z,29.20
2022-12-23T11:33:39.832Z,34.15
2022-12-23T11:36:15.068Z,40.28
2022-12-23T11:38:51.294Z,31.50
2022-12-23T11:41:21.111Z,27.67
2022-12-23T11:43:57.446Z,30.95
2022-12-23T11:46:27.894Z,40.25
2022-12-23T11:49:07.960Z,35.72
2022-12-23T11:51:35.658Z,41.60
2022-12-23T11:54:04.897Z,49.08
2022-12-23T11:56:38.004Z,48.00
2022-12-23T11:59:09.495Z,50.83
2022-12-23T12:01:39.432Z,43.42
2022-12-23T12:04:15.798Z,49.00
2022-12-23T12:06:51.166Z,55.17
2022-12-23T12:09:23.667Z,49.00
2022-12-23T12:11:55.243Z,46.67
2022-12-23T12:14:29.895Z,46.92
2022-12-23T12:17:06.567Z,41.28
2022-12-23T12:19:41.693Z,38.10
2022-12-23T12:22:16.696Z,34.33
2022-12-23T12:24:50.418Z,33.03
2022-12-23T12:27:20.960Z,43.13
2022-12-23T12:29:53.503Z,40.58
2022-12-23T12:32:30.403Z,42.33
2022-12-23T12:35:04.069Z,33.95
2022-12-23T12:37:39.177Z,37.88
2022-12-23T12:40:19.321Z,36.05
2022-12-23T12:42:53.936Z,34.53
2022-12-23T12:45:24.451Z,26.30
2022-12-23T12:48:12.803Z,28.80
2022-12-23T12:50:55.436Z,29.75
2022-12-23T12:53:24.730Z,28.65
2022-12-23T12:55:57.754Z,28.10
2022-12-23T12:58:25.791Z,24.00
2022-12-23T13:03:43.537Z,30.65
2022-12-23T13:06:22.076Z,23.52
2022-12-23T13:09:02.884Z,29.80
2022-12-23T13:11:43.958Z,22.40
2022-12-23T13:14:23.638Z,28.27
2022-12-23T13:17:01.211Z,29.00
2022-12-23T13:19:37.972Z,24.42
2022-12-23T13:22:11.025Z,25.45
2022-12-23T13:24:51.787Z,32.78
2022-12-23T13:30:05.102Z,36.00
2022-12-23T13:33:12.421Z,24.15
2022-12-23T13:35:59.733Z,25.95
2022-12-23T13:38:50.425Z,28.77
2022-12-23T13:41:26.663Z,28.50
2022-12-23T13:43:57.441Z,23.73
2022-12-23T13:46:36.030Z,25.02
2022-12-23T13:49:11.125Z,19.58
2022-12-23T13:51:47.567Z,22.98
2022-12-23T13:54:28.468Z,28.80
2022-12-23T13:57:08.424Z,24.63
2022-12-23T13:59:40.805Z,19.38
2022-12-23T14:02:38.231Z,28.25
2022-12-23T14:05:16.967Z,22.55
2022-12-23T14:07:45.805Z,20.33
2022-12-23T14:10:23.835Z,23.17
2022-12-23T14:12:53.257Z,26.67
2022-12-23T14:15:41.891Z,24.85
2022-12-23T14:18:25.454Z,25.25
2022-12-23T14:21:03.006Z,21.33
2022-12-23T14:23:46.111Z,26.38
2022-12-23T14:26:31.077Z,19.42
2022-12-23T14:29:24.902Z,22.80
2022-12-23T14:31:57.108Z,23.63
2022-12-23T14:34:30.290Z,22.52
2022-12-23T14:37:34.581Z,20.20
2022-12-23T14:40:35.682Z,20.58
2022-12-23T14:43:27.714Z,23.42
2022-12-23T14:45:56.764Z,16.15
2022-12-23T14:49:29.674Z,18.58
2022-12-23T14:51:51.018Z,17.63
2022-12-23T14:54:38.819Z,21.52
2022-12-23T14:57:17.772Z,20.23
2022-12-23T14:59:54.084Z,18.13
2022-12-23T15:02:30.234Z,24.42
2022-12-23T15:04:59.703Z,22.13
2022-12-23T15:07:31.770Z,20.30
2022-12-23T15:10:01.931Z,17.95
2022-12-23T15:12:33.606Z,21.50
2022-12-23T15:15:06.144Z,20.35
2022-12-23T15:17:37.428Z,20.90
2022-12-23T15:20:13.990Z,21.33
2022-12-23T15:22:44.087Z,16.58
2022-12-23T15:25:31.295Z,21.13
2022-12-23T15:28:02.141Z,17.27
2022-12-23T15:30:35.289Z,16.48
2022-12-23T15:33:16.113Z,18.55
2022-12-23T15:35:54.282Z,17.70
2022-12-23T15:40:58.817Z,18.23
2022-12-23T15:43:26.458Z,20.20
2022-12-23T15:45:55.686Z,15.63
2022-12-23T15:48:25.533Z,20.63
2022-12-23T15:50:56.043Z,20.30
2022-12-23T15:53:30.242Z,18.38
2022-12-23T15:55:58.088Z,18.42
2022-12-23T15:58:26.009Z,17.73
2022-12-23T16:00:57.473Z,17.45
2022-12-23T16:03:31.948Z,17.92
2022-12-23T16:06:09.358Z,20.08
2022-12-23T16:08:37.171Z,18.27
2022-12-23T16:11:13.221Z,18.13
2022-12-23T16:13:46.773Z,16.60
2022-12-23T16:16:30.616Z,18.77
2022-12-23T16:18:58.340Z,13.57
2022-12-23T16:21:30.666Z,16.23
2022-12-23T16:23:59.653Z,17.23
2022-12-23T16:26:27.858Z,19.05
2022-12-23T16:29:00.153Z,17.35
2022-12-23T16:31:29.409Z,17.50
2022-12-23T16:33:59.209Z,18.40
2022-12-23T16:36:35.271Z,17.92
2022-12-23T16:39:15.065Z,17.45
2022-12-23T16:41:43.953Z,15.93
2022-12-23T16:44:11.656Z,15.77
2022-12-23T16:46:44.651Z,15.93
2022-12-23T16:49:16.446Z,19.45
2022-12-23T16:51:44.267Z,16.08
2022-12-23T16:54:15.496Z,22.48
2022-12-23T16:56:43.326Z,17.95
2022-12-23T16:59:11.347Z,18.63
2022-12-23T17:01:42.440Z,19.30
2022-12-23T17:04:10.303Z,20.85
2022-12-23T17:06:38.587Z,19.10
2022-12-23T17:09:07.758Z,20.90
2022-12-23T17:11:38.159Z,19.05
2022-12-23T17:14:11.808Z,18.15
2022-12-23T17:16:44.721Z,22.08
2022-12-23T17:19:13.155Z,25.20
2022-12-23T17:21:42.713Z,18.17
2022-12-23T17:24:13.963Z,20.63
2022-12-23T17:26:41.684Z,18.58
2022-12-23T17:29:13.016Z,21.38
2022-12-23T17:31:42.299Z,21.70
2022-12-23T17:34:16.731Z,20.90
2022-12-23T17:36:49.947Z,19.42
2022-12-23T17:39:18.667Z,23.63
2022-12-23T17:41:46.424Z,21.23
2022-12-23T17:44:15.389Z,25.80
2022-12-23T17:46:43.395Z,24.90
2022-12-23T17:49:12.514Z,25.20
2022-12-23T17:51:41.379Z,27.80
2022-12-23T17:54:21.382Z,24.60
2022-12-23T17:56:49.075Z,23.50
2022-12-23T17:59:16.734Z,28.27
2022-12-23T18:01:44.501Z,22.02
2022-12-23T18:04:13.601Z,24.63
2022-12-23T18:06:42.097Z,21.67
2022-12-23T18:09:09.764Z,26.08
2022-12-23T18:11:42.021Z,25.38
2022-12-23T18:14:15.634Z,24.55
2022-12-23T18:16:43.386Z,22.38
2022-12-23T18:19:16.391Z,26.98
2022-12-23T18:21:44.135Z,22.25
2022-12-23T18:24:12.043Z,25.35
2022-12-23T18:26:39.753Z,29.30
2022-12-23T18:29:07.436Z,21.35
2022-12-23T18:31:36.964Z,23.83
2022-12-23T18:34:04.856Z,23.30
2022-12-23T18:36:34.377Z,28.70
2022-12-23T18:39:02.194Z,24.70
2022-12-23T18:41:29.959Z,31.55
2022-12-23T18:43:57.777Z,33.78
2022-12-23T18:46:25.462Z,20.60
2022-12-23T18:48:53.898Z,28.88
2022-12-23T18:51:22.568Z,21.92
2022-12-23T18:53:51.660Z,24.83
2022-12-23T18:56:21.198Z,22.35
2022-12-23T18:58:49.487Z,23.17
2022-12-23T19:03:45.885Z,28.02
2022-12-23T19:06:15.696Z,26.08
2022-12-23T19:08:44.384Z,26.40
2022-12-23T19:11:15.160Z,33.05
2022-12-23T19:13:42.990Z,27.13
2022-12-23T19:16:14.175Z,37.42
2022-12-23T19:18:42.158Z,25.52
2022-12-23T19:21:10.215Z,25.73
2022-12-23T19:26:06.190Z,20.80
2022-12-23T19:28:37.367Z,25.30
2022-12-23T19:31:08.739Z,26.98
2022-12-23T19:33:37.651Z,21.95
2022-12-23T19:36:09.595Z,30.77
2022-12-23T19:38:37.389Z,36.58
2022-12-23T19:41:06.497Z,21.65
2022-12-23T19:43:36.296Z,26.27
2022-12-23T19:46:06.147Z,25.42
2022-12-23T19:48:34.112Z,34.83
2022-12-23T19:51:03.578Z,26.95
2022-12-23T19:53:31.327Z,23.77
2022-12-23T19:56:00.377Z,34.65
2022-12-23T19:58:29.106Z,32.42
2022-12-23T20:01:11.173Z,28.88
2022-12-23T20:03:39.508Z,31.25
2022-12-23T20:06:09.381Z,29.73
2022-12-23T20:08:37.080Z,25.92
2022-12-23T20:11:07.326Z,21.13
2022-12-23T20:13:35.711Z,23.90
2022-12-23T20:16:04.343Z,24.25
2022-12-23T20:18:33.540Z,34.30
2022-12-23T20:21:01.768Z,23.02
2022-12-23T20:23:30.268Z,22.70
2022-12-23T20:25:57.987Z,25.38
2022-12-23T20:28:25.877Z,26.48
2022-12-23T20:31:00.349Z,25.95
2022-12-23T20:33:28.114Z,27.65
2022-12-23T20:35:57.183Z,25.67
2022-12-23T20:38:24.940Z,22.27
2022-12-23T20:40:52.599Z,26.83
2022-12-23T20:43:20.337Z,23.70
2022-12-23T20:45:48.039Z,14.32
2022-12-23T20:48:15.697Z,21.08
2022-12-23T20:50:43.408Z,16.85
2022-12-23T20:53:12.444Z,12.27
2022-12-23T20:55:40.125Z,15.30
2022-12-23T20:58:21.743Z,14.95
2022-12-23T21:00:49.739Z,17.83
2022-12-23T21:03:17.518Z,16.38
2022-12-23T21:05:45.327Z,18.40
2022-12-23T21:08:14.419Z,14.57
2022-12-23T21:10:44.389Z,14.80
2022-12-23T21:13:14.206Z,13.32
2022-12-23T21:15:41.929Z,17.50
2022-12-23T21:18:09.625Z,14.38
2022-12-23T21:20:37.535Z,15.85
2022-12-23T21:23:05.457Z,12.60
2022-12-23T21:25:34.554Z,13.48
2022-12-23T21:28:02.264Z,16.10
2022-12-23T21:30:29.922Z,19.63
2022-12-23T21:33:00.241Z,14.70
2022-12-23T21:35:27.902Z,12.55
2022-12-23T21:37:55.608Z,8.75
2022-12-23T21:40:23.308Z,16.42
2022-12-23T21:42:52.357Z,18.65
2022-12-23T21:45:20.549Z,12.85
2022-12-23T21:47:48.207Z,14.07
2022-12-23T21:50:15.947Z,14.60
2022-12-23T21:52:43.602Z,13.85
2022-12-23T21:55:15.618Z,17.58
2022-12-23T21:57:43.295Z,15.88
2022-12-23T22:00:13.244Z,9.63
2022-12-23T22:02:40.925Z,13.52
2022-12-23T22:05:09.424Z,15.23
2022-12-23T22:07:37.120Z,15.68
2022-12-23T22:10:05.264Z,13.23
2022-12-23T22:12:32.949Z,11.93
2022-12-23T22:15:02.733Z,12.57
2022-12-23T22:17:34.122Z,12.60
2022-12-23T22:20:01.884Z,15.70
2022-12-23T22:22:29.583Z,14.68
2022-12-23T22:24:57.298Z,17.42
2022-12-23T22:27:24.989Z,16.02
2022-12-23T22:29:52.646Z,16.05
2022-12-23T22:32:20.990Z,10.93
2022-12-23T22:34:50.001Z,17.35
2022-12-23T22:37:19.828Z,19.00
2022-12-23T22:39:47.727Z,10.93
2022-12-23T22:42:15.387Z,13.55
2022-12-23T22:44:43.079Z,16.83
2022-12-23T22:47:10.940Z,11.90
2022-12-23T22:49:38.632Z,12.35
2022-12-23T22:52:07.741Z,14.35
2022-12-23T22:54:35.407Z,18.00
2022-12-23T22:57:03.074Z,12.90
2022-12-23T22:59:30.766Z,11.63
2022-12-23T23:01:58.476Z,11.55
2022-12-23T23:04:26.217Z,14.60
2022-12-23T23:06:53.956Z,14.38
2022-12-23T23:09:23.637Z,12.77
2022-12-23T23:11:51.739Z,19.38
2022-12-23T23:16:47.401Z,13.73
2022-12-23T23:19:16.414Z,14.63
2022-12-23T23:21:44.135Z,16.70
2022-12-23T23:24:12.246Z,16.20
2022-12-23T23:29:08.790Z,13.82
2022-12-23T23:31:44.420Z,16.27
2022-12-23T23:34:13.304Z,12.80
2022-12-23T23:36:41.135Z,14.82
2022-12-23T23:39:08.947Z,12.98
2022-12-23T23:41:36.695Z,16.23
2022-12-23T23:44:06.138Z,13.88
2022-12-23T23:46:34.168Z,10.63
2022-12-23T23:49:01.987Z,15.98
2022-12-23T23:51:29.684Z,12.02
2022-12-23T23:53:57.364Z,19.33
2022-12-23T23:56:26.260Z,12.45
2022-12-23T23:58:54.501Z,15.88
